createdAt,value
2023-03-06T00:00:27.217Z,95258.09
2023-03-06T00:15:28.612Z,95246.88
2023-03-06T00:30:30.021Z,95234.19
2023-03-06T00:45:31.511Z,95212.88
2023-03-06T01:00:32.963Z,95193.47
2023-03-06T01:15:34.369Z,95187.78
2023-03-06T01:30:35.816Z,95169.63
2023-03-06T01:45:37.262Z,95166.75
2023-03-06T02:00:38.692Z,95148.66
2023-03-06T02:15:40.120Z,95123.13
2023-03-06T02:30:41.600Z,95109.31
2023-03-06T02:45:45.149Z,95082.66
2023-03-06T03:00:46.749Z,95068.16
2023-03-06T03:15:48.425Z,95062.63
2023-03-06T03:30:49.908Z,95058.41
2023-03-06T03:45:51.375Z,95040.28
2023-03-06T04:00:53.192Z,95036.66
2023-03-06T04:15:54.745Z,95031.09
2023-03-06T04:30:57.881Z,95006.06
2023-03-06T04:45:59.776Z,95002.25
2023-03-06T05:01:01.264Z,94987.53
2023-03-06T05:16:02.802Z,94986.06
2023-03-06T05:31:04.224Z,94988.31
2023-03-06T05:46:05.646Z,94978.34
2023-03-06T06:01:07.041Z,94972.09
2023-03-06T06:16:08.551Z,94981.00
2023-03-06T06:31:10.357Z,94973.16
2023-03-06T06:46:41.876Z,94969.38
2023-03-06T07:01:33.110Z,94984.38
2023-03-06T07:16:34.913Z,94990.66
2023-03-06T07:31:36.288Z,94988.84
2023-03-06T07:46:37.814Z,95005.53
2023-03-06T08:01:40.191Z,95018.44
2023-03-06T08:16:41.649Z,95027.09
2023-03-06T08:31:43.147Z,95028.97
2023-03-06T08:46:44.665Z,95029.28
2023-03-06T09:01:46.705Z,95035.84
2023-03-06T09:16:48.236Z,95044.47
2023-03-06T09:31:49.662Z,95037.25
2023-03-06T09:46:51.016Z,95048.19
2023-03-06T10:01:52.424Z,95043.44
2023-03-06T10:16:53.858Z,95048.03
2023-03-06T10:31:55.208Z,95043.50
2023-03-06T10:46:56.570Z,95045.00
2023-03-06T11:01:59.107Z,95041.97
2023-03-06T11:17:00.575Z,95046.97
2023-03-06T11:32:02.102Z,95036.97
2023-03-06T11:47:03.557Z,95026.25
2023-03-06T12:02:05.030Z,95002.69
2023-03-06T12:17:06.904Z,94983.28
2023-03-06T12:32:08.710Z,94979.22
2023-03-06T12:47:10.413Z,94978.41
2023-03-06T13:02:11.850Z,94975.34
2023-03-06T13:17:13.255Z,94963.06
2023-03-06T13:32:14.665Z,94960.63
2023-03-06T13:47:16.017Z,94961.50
2023-03-06T14:02:17.441Z,94953.19
2023-03-06T14:17:19.125Z,94942.25
2023-03-06T14:32:20.511Z,94934.78
2023-03-06T14:47:22.175Z,94919.34
2023-03-06T15:02:23.631Z,94920.16
2023-03-06T15:17:25.099Z,94923.75
2023-03-06T15:32:26.476Z,94914.97
2023-03-06T15:47:27.912Z,94913.16
2023-03-06T16:02:29.279Z,94916.47
2023-03-06T16:17:30.623Z,94913.47
2023-03-06T16:32:32.089Z,94925.91
2023-03-06T16:47:33.497Z,94933.50
2023-03-06T17:02:34.937Z,94959.28
2023-03-06T17:17:36.366Z,94962.28
2023-03-06T17:32:37.823Z,94977.94
2023-03-06T17:47:39.223Z,94974.53
2023-03-06T18:02:41.033Z,94992.75
2023-03-06T18:17:42.539Z,94982.03
2023-03-06T18:32:43.978Z,94980.16
2023-03-06T18:47:45.408Z,94982.03
2023-03-06T19:02:46.782Z,94980.94
2023-03-06T19:17:48.197Z,94981.63
2023-03-06T19:32:49.673Z,94971.88
2023-03-06T19:47:53.647Z,94976.94
2023-03-06T20:02:54.999Z,94978.41
2023-03-06T20:17:56.852Z,94974.91
2023-03-06T20:32:58.368Z,94972.75
2023-03-06T20:47:59.726Z,94962.06
2023-03-06T21:03:01.115Z,94959.63
2023-03-06T21:18:02.481Z,94944.88
2023-03-06T21:33:03.864Z,94933.09
2023-03-06T21:48:05.234Z,94925.66
2023-03-06T22:03:06.652Z,94912.25
2023-03-06T22:18:15.640Z,94903.84
2023-03-06T22:33:16.894Z,94892.19
2023-03-06T22:48:18.243Z,94883.78
2023-03-06T23:03:19.624Z,94875.94
2023-03-06T23:18:20.989Z,94879.84
2023-03-06T23:33:40.774Z,94858.44
2023-03-06T23:48:42.163Z,94852.53
